sensor_id;sensor_type;location;lat;lon;timestamp;temperature;humidity
8595;DHT22;4335;48.860;9.198;2023-11-21T00:01:27;8.60;99.90
8595;DHT22;4335;48.860;9.198;2023-11-21T00:03:54;8.70;99.90
8595;DHT22;4335;48.860;9.198;2023-11-21T00:06:24;8.70;99.90
8595;DHT22;4335;48.860;9.198;2023-11-21T00:08:52;8.70;99.90
8595;DHT22;4335;48.860;9.198;2023-11-21T00:11:19;8.60;99.90
8595;DHT22;4335;48.860;9.198;2023-11-21T00:13:56;8.60;99.90
8595;DHT22;4335;48.860;9.198;2023-11-21T00:16:37;8.50;99.90
8595;DHT22;4335;48.860;9.198;2023-11-21T00:19:05;8.50;99.90
8595;DHT22;4335;48.860;9.198;2023-11-21T00:21:33;8.50;99.90
8595;DHT22;4335;48.860;9.198;2023-11-21T00:24:00;8.60;99.90
8595;DHT22;4335;48.860;9.198;2023-11-21T00:26:27;8.60;99.90
8595;DHT22;4335;48.860;9.198;2023-11-21T00:29:04;8.60;99.90
8595;DHT22;4335;48.860;9.198;2023-11-21T00:31:34;8.70;99.90
8595;DHT22;4335;48.860;9.198;2023-11-21T00:34:04;8.70;99.90
8595;DHT22;4335;48.860;9.198;2023-11-21T00:36:43;8.70;99.90
8595;DHT22;4335;48.860;9.198;2023-11-21T00:39:11;8.70;99.90
8595;DHT22;4335;48.860;9.198;2023-11-21T00:41:38;8.70;99.90
8595;DHT22;4335;48.860;9.198;2023-11-21T00:44:09;8.70;99.90
8595;DHT22;4335;48.860;9.198;2023-11-21T00:46:39;8.70;99.90
8595;DHT22;4335;48.860;9.198;2023-11-21T00:49:08;8.70;99.90
8595;DHT22;4335;48.860;9.198;2023-11-21T00:51:35;8.80;99.90
8595;DHT22;4335;48.860;9.198;2023-11-21T00:54:03;8.80;99.90
8595;DHT22;4335;48.860;9.198;2023-11-21T00:56:30;8.80;99.90
8595;DHT22;4335;48.860;9.198;2023-11-21T00:58:58;8.80;99.90
8595;DHT22;4335;48.860;9.198;2023-11-21T01:01:25;8.90;99.90
8595;DHT22;4335;48.860;9.198;2023-11-21T01:03:56;8.90;99.90
8595;DHT22;4335;48.860;9.198;2023-11-21T01:06:27;8.90;99.90
8595;DHT22;4335;48.860;9.198;2023-11-21T01:08:55;8.90;99.90
8595;DHT22;4335;48.860;9.198;2023-11-21T01:11:25;8.90;99.90
8595;DHT22;4335;48.860;9.198;2023-11-21T01:13:53;8.90;99.90
8595;DHT22;4335;48.860;9.198;2023-11-21T01:16:20;8.80;99.90
8595;DHT22;4335;48.860;9.198;2023-11-21T01:18:50;8.90;99.90
8595;DHT22;4335;48.860;9.198;2023-11-21T01:21:18;8.90;99.90
8595;DHT22;4335;48.860;9.198;2023-11-21T01:23:47;8.90;99.90
8595;DHT22;4335;48.860;9.198;2023-11-21T01:26:14;8.90;99.90
8595;DHT22;4335;48.860;9.198;2023-11-21T01:28:41;8.90;99.90
8595;DHT22;4335;48.860;9.198;2023-11-21T01:31:15;8.90;99.90
8595;DHT22;4335;48.860;9.198;2023-11-21T01:33:42;8.90;99.90
8595;DHT22;4335;48.860;9.198;2023-11-21T01:36:10;8.90;99.90
8595;DHT22;4335;48.860;9.198;2023-11-21T01:38:37;8.90;99.90
8595;DHT22;4335;48.860;9.198;2023-11-21T01:41:06;8.90;99.90
8595;DHT22;4335;48.860;9.198;2023-11-21T01:43:34;8.90;99.90
8595;DHT22;4335;48.860;9.198;2023-11-21T01:46:05;8.90;99.90
8595;DHT22;4335;48.860;9.198;2023-11-21T01:48:36;8.90;99.90
8595;DHT22;4335;48.860;9.198;2023-11-21T01:51:04;8.80;99.90
8595;DHT22;4335;48.860;9.198;2023-11-21T01:53:32;8.80;99.90
8595;DHT22;4335;48.860;9.198;2023-11-21T01:55:59;8.80;99.90
8595;DHT22;4335;48.860;9.198;2023-11-21T01:58:31;8.80;99.90
8595;DHT22;4335;48.860;9.198;2023-11-21T02:01:02;8.80;99.90
8595;DHT22;4335;48.860;9.198;2023-11-21T02:03:31;8.80;99.90
8595;DHT22;4335;48.860;9.198;2023-11-21T02:06:03;8.80;99.90
8595;DHT22;4335;48.860;9.198;2023-11-21T02:08:37;8.80;99.90
8595;DHT22;4335;48.860;9.198;2023-11-21T02:11:05;8.80;99.90
8595;DHT22;4335;48.860;9.198;2023-11-21T02:13:34;8.80;99.90
8595;DHT22;4335;48.860;9.198;2023-11-21T02:16:05;8.80;99.90
8595;DHT22;4335;48.860;9.198;2023-11-21T02:18:32;8.80;99.90
8595;DHT22;4335;48.860;9.198;2023-11-21T02:21:00;8.80;99.90
8595;DHT22;4335;48.860;9.198;2023-11-21T02:23:30;8.90;99.90
8595;DHT22;4335;48.860;9.198;2023-11-21T02:26:06;8.80;99.90
8595;DHT22;4335;48.860;9.198;2023-11-21T02:28:33;8.90;99.90
8595;DHT22;4335;48.860;9.198;2023-11-21T02:31:02;8.90;99.90
8595;DHT22;4335;48.860;9.198;2023-11-21T02:33:30;8.90;99.90
8595;DHT22;4335;48.860;9.198;2023-11-21T02:36:03;8.90;99.90
8595;DHT22;4335;48.860;9.198;2023-11-21T02:38:38;8.90;99.90
8595;DHT22;4335;48.860;9.198;2023-11-21T02:41:09;8.90;99.90
8595;DHT22;4335;48.860;9.198;2023-11-21T02:43:36;8.90;99.90
8595;DHT22;4335;48.860;9.198;2023-11-21T02:46:10;9.00;99.90
8595;DHT22;4335;48.860;9.198;2023-11-21T02:48:37;9.00;99.90
8595;DHT22;4335;48.860;9.198;2023-11-21T02:51:08;9.00;99.90
8595;DHT22;4335;48.860;9.198;2023-11-21T02:53:43;9.00;99.90
8595;DHT22;4335;48.860;9.198;2023-11-21T02:56:12;9.00;99.90
8595;DHT22;4335;48.860;9.198;2023-11-21T02:58:42;9.00;99.90
8595;DHT22;4335;48.860;9.198;2023-11-21T03:01:10;9.00;99.90
8595;DHT22;4335;48.860;9.198;2023-11-21T03:03:39;9.00;99.90
8595;DHT22;4335;48.860;9.198;2023-11-21T03:06:07;9.00;99.90
8595;DHT22;4335;48.860;9.198;2023-11-21T03:08:38;9.00;99.90
8595;DHT22;4335;48.860;9.198;2023-11-21T03:11:09;9.00;99.90
8595;DHT22;4335;48.860;9.198;2023-11-21T03:13:42;9.00;99.90
8595;DHT22;4335;48.860;9.198;2023-11-21T03:16:11;9.00;99.90
8595;DHT22;4335;48.860;9.198;2023-11-21T03:18:38;9.00;99.90
8595;DHT22;4335;48.860;9.198;2023-11-21T03:21:06;9.00;99.90
8595;DHT22;4335;48.860;9.198;2023-11-21T03:23:34;9.00;99.90
8595;DHT22;4335;48.860;9.198;2023-11-21T03:26:02;8.90;99.90
8595;DHT22;4335;48.860;9.198;2023-11-21T03:28:31;9.00;99.90
8595;DHT22;4335;48.860;9.198;2023-11-21T03:31:04;8.90;99.90
8595;DHT22;4335;48.860;9.198;2023-11-21T03:33:32;8.90;99.90
8595;DHT22;4335;48.860;9.198;2023-11-21T03:36:07;8.90;99.90
8595;DHT22;4335;48.860;9.198;2023-11-21T03:38:35;8.90;99.90
8595;DHT22;4335;48.860;9.198;2023-11-21T03:41:03;8.90;99.90
8595;DHT22;4335;48.860;9.198;2023-11-21T03:43:35;8.90;99.90
8595;DHT22;4335;48.860;9.198;2023-11-21T03:46:02;8.90;99.90
8595;DHT22;4335;48.860;9.198;2023-11-21T03:48:30;8.90;99.90
8595;DHT22;4335;48.860;9.198;2023-11-21T03:50:58;8.90;99.90
8595;DHT22;4335;48.860;9.198;2023-11-21T03:53:26;8.90;99.90
8595;DHT22;4335;48.860;9.198;2023-11-21T03:55:54;8.90;99.90
8595;DHT22;4335;48.860;9.198;2023-11-21T03:58:21;9.00;99.90
8595;DHT22;4335;48.860;9.198;2023-11-21T04:00:50;8.90;99.90
8595;DHT22;4335;48.860;9.198;2023-11-21T04:03:20;8.90;99.90
8595;DHT22;4335;48.860;9.198;2023-11-21T04:05:48;9.00;99.90
8595;DHT22;4335;48.860;9.198;2023-11-21T04:08:15;9.00;99.90
8595;DHT22;4335;48.860;9.198;2023-11-21T04:10:46;9.00;99.90
8595;DHT22;4335;48.860;9.198;2023-11-21T04:13:16;9.00;99.90
8595;DHT22;4335;48.860;9.198;2023-11-21T04:15:43;8.90;99.90
8595;DHT22;4335;48.860;9.198;2023-11-21T04:18:12;8.90;99.90
8595;DHT22;4335;48.860;9.198;2023-11-21T04:20:42;8.90;99.90
8595;DHT22;4335;48.860;9.198;2023-11-21T04:23:13;8.90;99.90
8595;DHT22;4335;48.860;9.198;2023-11-21T04:25:41;8.90;99.90
8595;DHT22;4335;48.860;9.198;2023-11-21T04:28:17;8.80;99.90
8595;DHT22;4335;48.860;9.198;2023-11-21T04:30:45;8.80;99.90
8595;DHT22;4335;48.860;9.198;2023-11-21T04:33:17;8.80;99.90
8595;DHT22;4335;48.860;9.198;2023-11-21T04:35:44;8.90;99.90
8595;DHT22;4335;48.860;9.198;2023-11-21T04:38:15;8.80;99.90
8595;DHT22;4335;48.860;9.198;2023-11-21T04:40:42;8.80;99.90
8595;DHT22;4335;48.860;9.198;2023-11-21T04:43:13;8.80;99.90
8595;DHT22;4335;48.860;9.198;2023-11-21T04:45:40;8.80;99.90
8595;DHT22;4335;48.860;9.198;2023-11-21T04:48:07;8.70;99.90
8595;DHT22;4335;48.860;9.198;2023-11-21T04:50:40;8.70;99.90
8595;DHT22;4335;48.860;9.198;2023-11-21T04:53:07;8.70;99.90
8595;DHT22;4335;48.860;9.198;2023-11-21T04:55:34;8.70;99.90
8595;DHT22;4335;48.860;9.198;2023-11-21T04:58:04;8.70;99.90
8595;DHT22;4335;48.860;9.198;2023-11-21T05:00:32;8.70;99.90
8595;DHT22;4335;48.860;9.198;2023-11-21T05:03:06;8.70;99.90
8595;DHT22;4335;48.860;9.198;2023-11-21T05:05:44;8.70;99.90
8595;DHT22;4335;48.860;9.198;2023-11-21T05:08:14;8.70;99.90
8595;DHT22;4335;48.860;9.198;2023-11-21T05:10:41;8.70;99.90
8595;DHT22;4335;48.860;9.198;2023-11-21T05:13:09;8.70;99.90
8595;DHT22;4335;48.860;9.198;2023-11-21T05:15:36;8.70;99.90
8595;DHT22;4335;48.860;9.198;2023-11-21T05:18:07;8.70;99.90
8595;DHT22;4335;48.860;9.198;2023-11-21T05:20:34;8.70;99.90
8595;DHT22;4335;48.860;9.198;2023-11-21T05:23:06;8.60;99.90
8595;DHT22;4335;48.860;9.198;2023-11-21T05:25:34;8.60;99.90
8595;DHT22;4335;48.860;9.198;2023-11-21T05:28:04;8.60;99.90
8595;DHT22;4335;48.860;9.198;2023-11-21T05:30:35;8.60;99.90
8595;DHT22;4335;48.860;9.198;2023-11-21T05:33:13;8.50;99.90
8595;DHT22;4335;48.860;9.198;2023-11-21T05:35:40;8.60;99.90
8595;DHT22;4335;48.860;9.198;2023-11-21T05:38:09;8.50;99.90
8595;DHT22;4335;48.860;9.198;2023-11-21T05:40:36;8.60;99.90
8595;DHT22;4335;48.860;9.198;2023-11-21T05:43:07;8.60;99.90
8595;DHT22;4335;48.860;9.198;2023-11-21T05:45:34;8.60;99.90
8595;DHT22;4335;48.860;9.198;2023-11-21T05:48:01;8.70;99.90
8595;DHT22;4335;48.860;9.198;2023-11-21T05:50:30;8.70;99.90
8595;DHT22;4335;48.860;9.198;2023-11-21T05:53:00;8.80;99.90
8595;DHT22;4335;48.860;9.198;2023-11-21T05:55:29;8.90;99.90
8595;DHT22;4335;48.860;9.198;2023-11-21T05:58:00;8.90;99.90
8595;DHT22;4335;48.860;9.198;2023-11-21T06:00:30;9.00;99.90
8595;DHT22;4335;48.860;9.198;2023-11-21T06:03:04;9.00;99.90
8595;DHT22;4335;48.860;9.198;2023-11-21T06:05:33;9.00;99.90
8595;DHT22;4335;48.860;9.198;2023-11-21T06:08:03;9.00;99.90
8595;DHT22;4335;48.860;9.198;2023-11-21T06:10:39;9.00;99.90
8595;DHT22;4335;48.860;9.198;2023-11-21T06:13:12;9.00;99.90
8595;DHT22;4335;48.860;9.198;2023-11-21T06:15:40;9.00;99.90
8595;DHT22;4335;48.860;9.198;2023-11-21T06:18:08;9.00;99.90
8595;DHT22;4335;48.860;9.198;2023-11-21T06:20:38;9.00;99.90
8595;DHT22;4335;48.860;9.198;2023-11-21T06:23:06;9.00;99.90
8595;DHT22;4335;48.860;9.198;2023-11-21T06:25:36;9.00;99.90
8595;DHT22;4335;48.860;9.198;2023-11-21T06:28:04;9.00;99.90
8595;DHT22;4335;48.860;9.198;2023-11-21T06:30:31;9.00;99.90
8595;DHT22;4335;48.860;9.198;2023-11-21T06:33:08;9.10;99.90
8595;DHT22;4335;48.860;9.198;2023-11-21T06:35:35;9.10;99.90
8595;DHT22;4335;48.860;9.198;2023-11-21T06:38:02;9.10;99.90
8595;DHT22;4335;48.860;9.198;2023-11-21T06:40:30;9.10;99.90
8595;DHT22;4335;48.860;9.198;2023-11-21T06:43:03;9.10;99.90
8595;DHT22;4335;48.860;9.198;2023-11-21T06:45:34;9.20;99.90
8595;DHT22;4335;48.860;9.198;2023-11-21T06:48:04;9.20;99.90
8595;DHT22;4335;48.860;9.198;2023-11-21T06:50:31;9.20;99.90
8595;DHT22;4335;48.860;9.198;2023-11-21T06:53:02;9.20;99.90
8595;DHT22;4335;48.860;9.198;2023-11-21T06:55:36;9.20;99.90
8595;DHT22;4335;48.860;9.198;2023-11-21T06:58:04;9.20;99.90
8595;DHT22;4335;48.860;9.198;2023-11-21T07:00:32;9.20;99.90
8595;DHT22;4335;48.860;9.198;2023-11-21T07:02:59;9.20;99.90
8595;DHT22;4335;48.860;9.198;2023-11-21T07:05:29;9.10;99.90
8595;DHT22;4335;48.860;9.198;2023-11-21T07:07:56;9.10;99.90
8595;DHT22;4335;48.860;9.198;2023-11-21T07:10:30;9.10;99.90
8595;DHT22;4335;48.860;9.198;2023-11-21T07:13:01;9.10;99.90
8595;DHT22;4335;48.860;9.198;2023-11-21T07:15:29;9.10;99.90
8595;DHT22;4335;48.860;9.198;2023-11-21T07:17:57;9.10;99.90
8595;DHT22;4335;48.860;9.198;2023-11-21T07:20:27;9.10;99.90
8595;DHT22;4335;48.860;9.198;2023-11-21T07:22:58;9.00;99.90
8595;DHT22;4335;48.860;9.198;2023-11-21T07:25:33;9.10;99.90
8595;DHT22;4335;48.860;9.198;2023-11-21T07:28:00;9.10;99.90
8595;DHT22;4335;48.860;9.198;2023-11-21T07:30:32;9.10;99.90
8595;DHT22;4335;48.860;9.198;2023-11-21T07:32:59;9.10;99.90
8595;DHT22;4335;48.860;9.198;2023-11-21T07:35:29;9.10;99.90
8595;DHT22;4335;48.860;9.198;2023-11-21T07:37:57;9.10;99.90
8595;DHT22;4335;48.860;9.198;2023-11-21T07:40:30;9.20;99.90
8595;DHT22;4335;48.860;9.198;2023-11-21T07:43:03;9.20;99.90
8595;DHT22;4335;48.860;9.198;2023-11-21T07:45:33;9.20;99.90
8595;DHT22;4335;48.860;9.198;2023-11-21T07:48:06;9.20;99.90
8595;DHT22;4335;48.860;9.198;2023-11-21T07:50:39;9.30;99.90
8595;DHT22;4335;48.860;9.198;2023-11-21T07:53:06;9.30;99.90
8595;DHT22;4335;48.860;9.198;2023-11-21T07:55:33;9.30;99.90
8595;DHT22;4335;48.860;9.198;2023-11-21T07:58:05;9.30;99.90
8595;DHT22;4335;48.860;9.198;2023-11-21T08:00:34;9.30;99.90
8595;DHT22;4335;48.860;9.198;2023-11-21T08:03:04;9.30;99.90
8595;DHT22;4335;48.860;9.198;2023-11-21T08:05:31;9.30;99.90
8595;DHT22;4335;48.860;9.198;2023-11-21T08:07:59;9.40;99.90
8595;DHT22;4335;48.860;9.198;2023-11-21T08:10:29;9.50;99.90
8595;DHT22;4335;48.860;9.198;2023-11-21T08:12:57;9.50;99.90
8595;DHT22;4335;48.860;9.198;2023-11-21T08:15:24;9.60;99.90
8595;DHT22;4335;48.860;9.198;2023-11-21T08:17:53;9.60;99.90
8595;DHT22;4335;48.860;9.198;2023-11-21T08:20:24;9.70;99.90
8595;DHT22;4335;48.860;9.198;2023-11-21T08:22:51;9.70;99.90
8595;DHT22;4335;48.860;9.198;2023-11-21T08:25:19;9.70;99.90
8595;DHT22;4335;48.860;9.198;2023-11-21T08:27:46;9.80;99.90
8595;DHT22;4335;48.860;9.198;2023-11-21T08:30:14;9.90;99.90
8595;DHT22;4335;48.860;9.198;2023-11-21T08:32:48;10.00;99.90
8595;DHT22;4335;48.860;9.198;2023-11-21T08:35:18;10.10;99.90
8595;DHT22;4335;48.860;9.198;2023-11-21T08:37:45;10.20;99.90
8595;DHT22;4335;48.860;9.198;2023-11-21T08:40:16;10.30;99.90
8595;DHT22;4335;48.860;9.198;2023-11-21T08:42:43;10.40;99.90
8595;DHT22;4335;48.860;9.198;2023-11-21T08:45:14;10.30;99.90
8595;DHT22;4335;48.860;9.198;2023-11-21T08:47:43;10.40;99.90
8595;DHT22;4335;48.860;9.198;2023-11-21T08:50:14;10.40;99.90
8595;DHT22;4335;48.860;9.198;2023-11-21T08:52:44;10.40;99.90
8595;DHT22;4335;48.860;9.198;2023-11-21T08:55:11;10.40;99.90
8595;DHT22;4335;48.860;9.198;2023-11-21T08:57:40;10.50;99.90
8595;DHT22;4335;48.860;9.198;2023-11-21T09:00:08;10.60;99.90
8595;DHT22;4335;48.860;9.198;2023-11-21T09:02:37;10.60;99.90
8595;DHT22;4335;48.860;9.198;2023-11-21T09:05:08;10.70;99.90
8595;DHT22;4335;48.860;9.198;2023-11-21T09:07:39;10.80;99.90
8595;DHT22;4335;48.860;9.198;2023-11-21T09:10:12;10.90;99.90
8595;DHT22;4335;48.860;9.198;2023-11-21T09:12:47;10.90;99.90
8595;DHT22;4335;48.860;9.198;2023-11-21T09:15:17;11.00;99.90
8595;DHT22;4335;48.860;9.198;2023-11-21T09:17:46;11.10;99.90
8595;DHT22;4335;48.860;9.198;2023-11-21T09:20:16;11.20;99.90
8595;DHT22;4335;48.860;9.198;2023-11-21T09:22:43;11.20;99.90
8595;DHT22;4335;48.860;9.198;2023-11-21T09:25:16;11.30;99.90
8595;DHT22;4335;48.860;9.198;2023-11-21T09:27:45;11.40;99.90
8595;DHT22;4335;48.860;9.198;2023-11-21T09:30:12;11.40;99.90
8595;DHT22;4335;48.860;9.198;2023-11-21T09:32:40;11.40;99.90
8595;DHT22;4335;48.860;9.198;2023-11-21T09:35:17;11.40;99.90
8595;DHT22;4335;48.860;9.198;2023-11-21T09:37:44;11.40;99.90
8595;DHT22;4335;48.860;9.198;2023-11-21T09:40:22;11.40;99.90
8595;DHT22;4335;48.860;9.198;2023-11-21T09:42:54;11.50;99.90
8595;DHT22;4335;48.860;9.198;2023-11-21T09:45:25;11.50;99.90
8595;DHT22;4335;48.860;9.198;2023-11-21T09:47:55;11.50;99.90
8595;DHT22;4335;48.860;9.198;2023-11-21T09:50:28;11.50;99.90
8595;DHT22;4335;48.860;9.198;2023-11-21T09:53:09;11.50;99.90
8595;DHT22;4335;48.860;9.198;2023-11-21T09:55:43;11.50;99.90
8595;DHT22;4335;48.860;9.198;2023-11-21T09:58:14;11.40;99.90
8595;DHT22;4335;48.860;9.198;2023-11-21T10:00:42;11.40;99.90
8595;DHT22;4335;48.860;9.198;2023-11-21T10:03:10;11.40;99.90
8595;DHT22;4335;48.860;9.198;2023-11-21T10:05:45;11.30;99.90
8595;DHT22;4335;48.860;9.198;2023-11-21T10:08:13;11.20;99.90
8595;DHT22;4335;48.860;9.198;2023-11-21T10:10:44;11.20;99.90
8595;DHT22;4335;48.860;9.198;2023-11-21T10:13:14;11.10;99.90
8595;DHT22;4335;48.860;9.198;2023-11-21T10:15:50;11.00;99.90
8595;DHT22;4335;48.860;9.198;2023-11-21T10:18:19;10.90;99.90
8595;DHT22;4335;48.860;9.198;2023-11-21T10:20:48;10.80;99.90
8595;DHT22;4335;48.860;9.198;2023-11-21T10:23:21;10.70;99.90
8595;DHT22;4335;48.860;9.198;2023-11-21T10:25:51;10.70;99.90
8595;DHT22;4335;48.860;9.198;2023-11-21T10:28:19;10.70;99.90
8595;DHT22;4335;48.860;9.198;2023-11-21T10:30:52;10.60;99.90
8595;DHT22;4335;48.860;9.198;2023-11-21T10:33:27;10.60;99.90
8595;DHT22;4335;48.860;9.198;2023-11-21T10:35:55;10.70;99.90
8595;DHT22;4335;48.860;9.198;2023-11-21T10:38:22;10.60;99.90
8595;DHT22;4335;48.860;9.198;2023-11-21T10:40:53;10.70;99.90
8595;DHT22;4335;48.860;9.198;2023-11-21T10:43:25;10.60;99.90
8595;DHT22;4335;48.860;9.198;2023-11-21T10:45:52;10.60;99.90
8595;DHT22;4335;48.860;9.198;2023-11-21T10:48:20;10.70;99.90
8595;DHT22;4335;48.860;9.198;2023-11-21T10:50:48;10.80;99.90
8595;DHT22;4335;48.860;9.198;2023-11-21T10:53:16;10.80;99.90
8595;DHT22;4335;48.860;9.198;2023-11-21T10:55:44;10.80;99.90
8595;DHT22;4335;48.860;9.198;2023-11-21T10:58:17;10.90;99.90
8595;DHT22;4335;48.860;9.198;2023-11-21T11:00:45;10.90;99.90
8595;DHT22;4335;48.860;9.198;2023-11-21T11:03:12;11.00;99.90
8595;DHT22;4335;48.860;9.198;2023-11-21T11:05:44;11.10;99.90
8595;DHT22;4335;48.860;9.198;2023-11-21T11:08:19;11.10;99.90
8595;DHT22;4335;48.860;9.198;2023-11-21T11:10:52;11.20;99.90
8595;DHT22;4335;48.860;9.198;2023-11-21T11:13:26;11.30;99.90
8595;DHT22;4335;48.860;9.198;2023-11-21T11:15:58;11.40;99.90
8595;DHT22;4335;48.860;9.198;2023-11-21T11:18:32;11.40;99.90
8595;DHT22;4335;48.860;9.198;2023-11-21T11:21:07;11.50;99.90
8595;DHT22;4335;48.860;9.198;2023-11-21T11:23:49;11.50;99.90
8595;DHT22;4335;48.860;9.198;2023-11-21T11:26:29;11.60;99.90
8595;DHT22;4335;48.860;9.198;2023-11-21T11:29:05;11.60;99.90
8595;DHT22;4335;48.860;9.198;2023-11-21T11:31:45;11.70;99.90
8595;DHT22;4335;48.860;9.198;2023-11-21T11:34:30;11.70;99.90
8595;DHT22;4335;48.860;9.198;2023-11-21T11:37:01;11.70;99.90
8595;DHT22;4335;48.860;9.198;2023-11-21T11:39:37;11.70;99.90
8595;DHT22;4335;48.860;9.198;2023-11-21T11:42:07;11.70;99.90
8595;DHT22;4335;48.860;9.198;2023-11-21T11:44:54;11.60;99.90
8595;DHT22;4335;48.860;9.198;2023-11-21T11:47:25;11.60;99.90
8595;DHT22;4335;48.860;9.198;2023-11-21T11:50:03;11.50;99.90
8595;DHT22;4335;48.860;9.198;2023-11-21T11:52:41;11.40;99.90
8595;DHT22;4335;48.860;9.198;2023-11-21T11:55:10;11.30;99.90
8595;DHT22;4335;48.860;9.198;2023-11-21T11:57:38;11.10;99.90
8595;DHT22;4335;48.860;9.198;2023-11-21T12:00:14;11.10;99.90
8595;DHT22;4335;48.860;9.198;2023-11-21T12:02:47;11.00;99.90
8595;DHT22;4335;48.860;9.198;2023-11-21T12:05:17;11.00;99.90
8595;DHT22;4335;48.860;9.198;2023-11-21T12:07:49;11.00;99.90
8595;DHT22;4335;48.860;9.198;2023-11-21T12:10:20;11.00;99.90
8595;DHT22;4335;48.860;9.198;2023-11-21T12:12:54;11.10;99.90
8595;DHT22;4335;48.860;9.198;2023-11-21T12:15:24;11.30;99.90
8595;DHT22;4335;48.860;9.198;2023-11-21T12:17:55;11.40;99.90
8595;DHT22;4335;48.860;9.198;2023-11-21T12:20:23;11.50;99.90
8595;DHT22;4335;48.860;9.198;2023-11-21T12:22:52;11.50;99.90
8595;DHT22;4335;48.860;9.198;2023-11-21T12:25:22;11.50;99.90
8595;DHT22;4335;48.860;9.198;2023-11-21T12:27:52;11.50;99.90
8595;DHT22;4335;48.860;9.198;2023-11-21T12:30:23;11.50;99.90
8595;DHT22;4335;48.860;9.198;2023-11-21T12:32:54;11.50;99.90
8595;DHT22;4335;48.860;9.198;2023-11-21T12:35:23;11.60;99.90
8595;DHT22;4335;48.860;9.198;2023-11-21T12:37:52;11.60;99.90
8595;DHT22;4335;48.860;9.198;2023-11-21T12:40:22;11.60;99.90
8595;DHT22;4335;48.860;9.198;2023-11-21T12:42:52;11.70;99.90
8595;DHT22;4335;48.860;9.198;2023-11-21T12:45:21;11.70;99.90
8595;DHT22;4335;48.860;9.198;2023-11-21T12:47:56;11.80;99.90
8595;DHT22;4335;48.860;9.198;2023-11-21T12:50:26;11.70;99.90
8595;DHT22;4335;48.860;9.198;2023-11-21T12:52:57;11.80;99.90
8595;DHT22;4335;48.860;9.198;2023-11-21T12:55:25;11.80;99.90
8595;DHT22;4335;48.860;9.198;2023-11-21T12:57:54;11.70;99.90
8595;DHT22;4335;48.860;9.198;2023-11-21T13:00:29;11.40;99.90
8595;DHT22;4335;48.860;9.198;2023-11-21T13:03:00;10.90;99.90
8595;DHT22;4335;48.860;9.198;2023-11-21T13:05:29;10.60;99.90
8595;DHT22;4335;48.860;9.198;2023-11-21T13:07:58;10.30;99.90
8595;DHT22;4335;48.860;9.198;2023-11-21T13:10:29;10.20;99.90
8595;DHT22;4335;48.860;9.198;2023-11-21T13:12:58;10.10;99.90
8595;DHT22;4335;48.860;9.198;2023-11-21T13:15:26;10.00;99.90
8595;DHT22;4335;48.860;9.198;2023-11-21T13:17:54;10.00;99.90
8595;DHT22;4335;48.860;9.198;2023-11-21T13:20:25;9.90;99.90
8595;DHT22;4335;48.860;9.198;2023-11-21T13:22:54;9.90;99.90
8595;DHT22;4335;48.860;9.198;2023-11-21T13:25:23;9.80;99.90
8595;DHT22;4335;48.860;9.198;2023-11-21T13:27:59;9.90;99.90
8595;DHT22;4335;48.860;9.198;2023-11-21T13:30:27;9.80;99.90
8595;DHT22;4335;48.860;9.198;2023-11-21T13:32:59;9.90;99.90
8595;DHT22;4335;48.860;9.198;2023-11-21T13:35:29;9.90;99.90
8595;DHT22;4335;48.860;9.198;2023-11-21T13:38:05;9.90;99.90
8595;DHT22;4335;48.860;9.198;2023-11-21T13:40:36;9.90;99.90
8595;DHT22;4335;48.860;9.198;2023-11-21T13:43:08;9.90;99.90
8595;DHT22;4335;48.860;9.198;2023-11-21T13:45:36;10.00;99.90
8595;DHT22;4335;48.860;9.198;2023-11-21T13:48:08;10.00;99.90
8595;DHT22;4335;48.860;9.198;2023-11-21T13:50:37;10.00;99.90
8595;DHT22;4335;48.860;9.198;2023-11-21T13:53:08;9.90;99.90
8595;DHT22;4335;48.860;9.198;2023-11-21T13:55:44;9.80;99.90
8595;DHT22;4335;48.860;9.198;2023-11-21T13:58:13;9.70;99.90
8595;DHT22;4335;48.860;9.198;2023-11-21T14:00:51;9.60;99.90
8595;DHT22;4335;48.860;9.198;2023-11-21T14:03:22;9.50;99.90
8595;DHT22;4335;48.860;9.198;2023-11-21T14:05:59;9.50;99.90
8595;DHT22;4335;48.860;9.198;2023-11-21T14:08:33;9.50;99.90
8595;DHT22;4335;48.860;9.198;2023-11-21T14:11:04;9.50;99.90
8595;DHT22;4335;48.860;9.198;2023-11-21T14:13:32;9.40;99.90
8595;DHT22;4335;48.860;9.198;2023-11-21T14:16:06;9.40;99.90
8595;DHT22;4335;48.860;9.198;2023-11-21T14:18:36;9.40;99.90
8595;DHT22;4335;48.860;9.198;2023-11-21T14:21:16;9.40;99.90
8595;DHT22;4335;48.860;9.198;2023-11-21T14:23:47;9.30;99.90
8595;DHT22;4335;48.860;9.198;2023-11-21T14:26:15;9.20;99.90
8595;DHT22;4335;48.860;9.198;2023-11-21T14:28:43;9.20;99.90
8595;DHT22;4335;48.860;9.198;2023-11-21T14:31:10;9.20;99.90
8595;DHT22;4335;48.860;9.198;2023-11-21T14:33:43;9.30;99.90
8595;DHT22;4335;48.860;9.198;2023-11-21T14:36:11;9.30;99.90
8595;DHT22;4335;48.860;9.198;2023-11-21T14:38:42;9.30;99.90
8595;DHT22;4335;48.860;9.198;2023-11-21T14:41:10;9.30;99.90
8595;DHT22;4335;48.860;9.198;2023-11-21T14:43:39;9.40;99.90
8595;DHT22;4335;48.860;9.198;2023-11-21T14:46:13;9.40;99.90
8595;DHT22;4335;48.860;9.198;2023-11-21T14:48:43;9.40;99.90
8595;DHT22;4335;48.860;9.198;2023-11-21T14:51:24;9.50;99.90
8595;DHT22;4335;48.860;9.198;2023-11-21T14:54:01;9.50;99.90
8595;DHT22;4335;48.860;9.198;2023-11-21T14:56:32;9.50;99.90
8595;DHT22;4335;48.860;9.198;2023-11-21T14:59:01;9.40;99.90
8595;DHT22;4335;48.860;9.198;2023-11-21T15:01:32;9.40;99.90
8595;DHT22;4335;48.860;9.198;2023-11-21T15:04:15;9.50;99.90
8595;DHT22;4335;48.860;9.198;2023-11-21T15:06:53;9.40;99.90
8595;DHT22;4335;48.860;9.198;2023-11-21T15:09:30;9.40;99.90
8595;DHT22;4335;48.860;9.198;2023-11-21T15:12:10;9.40;99.90
8595;DHT22;4335;48.860;9.198;2023-11-21T15:14:47;9.30;99.90
8595;DHT22;4335;48.860;9.198;2023-11-21T15:17:18;9.30;99.90
8595;DHT22;4335;48.860;9.198;2023-11-21T15:19:52;9.30;99.90
8595;DHT22;4335;48.860;9.198;2023-11-21T15:22:20;9.40;99.90
8595;DHT22;4335;48.860;9.198;2023-11-21T15:24:51;9.30;99.90
8595;DHT22;4335;48.860;9.198;2023-11-21T15:27:19;9.40;99.90
8595;DHT22;4335;48.860;9.198;2023-11-21T15:29:53;9.30;99.90
8595;DHT22;4335;48.860;9.198;2023-11-21T15:32:20;9.30;99.90
8595;DHT22;4335;48.860;9.198;2023-11-21T15:34:48;9.30;99.90
8595;DHT22;4335;48.860;9.198;2023-11-21T15:37:18;9.30;99.90
8595;DHT22;4335;48.860;9.198;2023-11-21T15:39:50;9.20;99.90
8595;DHT22;4335;48.860;9.198;2023-11-21T15:42:17;9.20;99.90
8595;DHT22;4335;48.860;9.198;2023-11-21T15:44:51;9.20;99.90
8595;DHT22;4335;48.860;9.198;2023-11-21T15:47:19;9.10;99.90
8595;DHT22;4335;48.860;9.198;2023-11-21T15:49:48;9.10;99.90
8595;DHT22;4335;48.860;9.198;2023-11-21T15:52:15;9.20;99.90
8595;DHT22;4335;48.860;9.198;2023-11-21T15:54:43;9.20;99.90
8595;DHT22;4335;48.860;9.198;2023-11-21T15:57:20;9.20;99.90
8595;DHT22;4335;48.860;9.198;2023-11-21T15:59:51;9.20;99.90
8595;DHT22;4335;48.860;9.198;2023-11-21T16:02:21;9.20;99.90
8595;DHT22;4335;48.860;9.198;2023-11-21T16:04:49;9.10;99.90
8595;DHT22;4335;48.860;9.198;2023-11-21T16:07:16;9.10;99.90
8595;DHT22;4335;48.860;9.198;2023-11-21T16:09:44;9.00;99.90
8595;DHT22;4335;48.860;9.198;2023-11-21T16:12:13;9.00;99.90
8595;DHT22;4335;48.860;9.198;2023-11-21T16:14:56;9.00;99.90
8595;DHT22;4335;48.860;9.198;2023-11-21T16:17:23;9.10;99.90
8595;DHT22;4335;48.860;9.198;2023-11-21T16:19:51;9.00;99.90
8595;DHT22;4335;48.860;9.198;2023-11-21T16:22:18;9.00;99.90
8595;DHT22;4335;48.860;9.198;2023-11-21T16:24:46;9.00;99.90
8595;DHT22;4335;48.860;9.198;2023-11-21T16:27:20;9.00;99.90
8595;DHT22;4335;48.860;9.198;2023-11-21T16:29:48;8.90;99.90
8595;DHT22;4335;48.860;9.198;2023-11-21T16:32:15;8.90;99.90